createdAt,value
2019-05-20T00:01:09.650Z,13.10
2019-05-20T00:03:38.061Z,13.10
2019-05-20T00:06:06.582Z,13.20
2019-05-20T00:08:35.015Z,13.10
2019-05-20T00:11:03.447Z,13.00
2019-05-20T00:13:31.943Z,12.90
2019-05-20T00:16:00.370Z,12.80
2019-05-20T00:18:28.778Z,12.80
2019-05-20T00:20:57.194Z,12.80
2019-05-20T00:23:25.612Z,12.80
2019-05-20T00:25:54.023Z,12.80
2019-05-20T00:28:22.433Z,12.80
2019-05-20T00:30:50.855Z,12.90
2019-05-20T00:33:19.267Z,12.90
2019-05-20T00:35:47.678Z,12.80
2019-05-20T00:38:16.102Z,12.80
2019-05-20T00:40:44.510Z,12.70
2019-05-20T00:43:12.931Z,12.70
2019-05-20T00:45:41.783Z,12.80
2019-05-20T00:48:10.203Z,12.80
2019-05-20T00:50:38.622Z,12.80
2019-05-20T00:53:07.101Z,12.70
2019-05-20T00:55:38.727Z,12.70
2019-05-20T00:58:07.157Z,12.80
2019-05-20T01:00:35.894Z,12.80
2019-05-20T01:03:04.318Z,12.80
2019-05-20T01:05:32.735Z,12.80
2019-05-20T01:08:01.150Z,12.70
2019-05-20T01:10:29.558Z,12.70
2019-05-20T01:12:58.035Z,12.70
2019-05-20T01:15:26.566Z,12.70
2019-05-20T01:17:55.022Z,12.80
2019-05-20T01:20:23.463Z,12.80
2019-05-20T01:22:51.894Z,12.90
2019-05-20T01:25:20.307Z,12.80
2019-05-20T01:27:48.717Z,12.80
2019-05-20T01:30:19.065Z,12.80
2019-05-20T01:32:47.493Z,12.80
2019-05-20T01:35:15.980Z,12.80
2019-05-20T01:37:44.399Z,12.80
2019-05-20T01:40:13.268Z,12.90
2019-05-20T01:42:41.766Z,12.90
2019-05-20T01:45:10.516Z,12.80
2019-05-20T01:47:38.929Z,12.80
2019-05-20T01:50:08.291Z,12.80
2019-05-20T01:52:36.714Z,12.80
2019-05-20T01:55:06.761Z,12.80
2019-05-20T01:57:35.183Z,12.70
2019-05-20T02:00:05.714Z,12.80
2019-05-20T02:02:34.150Z,12.70
2019-05-20T02:05:02.630Z,12.80
2019-05-20T02:07:31.045Z,12.70
2019-05-20T02:09:59.465Z,12.70
2019-05-20T02:12:27.884Z,12.70
2019-05-20T02:15:00.682Z,12.70
2019-05-20T02:17:29.110Z,12.70
2019-05-20T02:19:57.557Z,12.70
2019-05-20T02:22:25.984Z,12.70
2019-05-20T02:24:54.396Z,12.70
2019-05-20T02:27:22.907Z,12.70
2019-05-20T02:29:51.328Z,12.70
2019-05-20T02:32:19.754Z,12.70
2019-05-20T02:34:48.170Z,12.80
2019-05-20T02:37:16.608Z,12.70
2019-05-20T02:39:45.017Z,12.70
2019-05-20T02:42:13.433Z,12.70
2019-05-20T02:44:41.917Z,12.60
2019-05-20T02:47:10.629Z,12.70
2019-05-20T02:49:39.033Z,12.70
2019-05-20T02:52:07.447Z,12.70
2019-05-20T02:54:35.869Z,12.70
2019-05-20T02:57:04.393Z,12.70
2019-05-20T02:59:32.819Z,12.80
2019-05-20T03:02:01.224Z,12.80
2019-05-20T03:04:29.646Z,12.80
2019-05-20T03:06:58.067Z,12.80
2019-05-20T03:09:26.479Z,12.70
2019-05-20T03:11:54.969Z,12.80
2019-05-20T03:14:23.448Z,12.70
2019-05-20T03:16:51.864Z,12.70
2019-05-20T03:19:20.301Z,12.70
2019-05-20T03:21:48.706Z,12.70
2019-05-20T03:24:17.124Z,12.70
2019-05-20T03:26:45.785Z,12.70
2019-05-20T03:29:14.197Z,12.70
2019-05-20T03:31:42.618Z,12.70
2019-05-20T03:34:38.869Z,12.60
2019-05-20T03:36:41.354Z,12.60
2019-05-20T03:39:09.771Z,12.60
2019-05-20T03:41:38.179Z,12.70
2019-05-20T03:44:06.594Z,12.60
2019-05-20T03:46:35.019Z,12.70
2019-05-20T03:49:03.446Z,12.60
2019-05-20T03:51:31.924Z,12.70
2019-05-20T03:54:00.344Z,12.70
2019-05-20T03:56:28.750Z,12.70
2019-05-20T03:58:57.166Z,12.80
2019-05-20T04:01:25.623Z,12.80
2019-05-20T04:03:54.041Z,12.80
2019-05-20T04:06:22.456Z,12.90
2019-05-20T04:08:50.983Z,13.00
2019-05-20T04:11:19.396Z,13.00
2019-05-20T04:13:47.818Z,13.00
2019-05-20T04:16:16.291Z,13.00
2019-05-20T04:18:44.712Z,13.00
2019-05-20T04:21:13.124Z,13.10
2019-05-20T04:23:41.610Z,13.20
2019-05-20T04:26:10.080Z,13.20
2019-05-20T04:28:38.513Z,13.20
2019-05-20T04:31:06.937Z,13.20
2019-05-20T04:33:35.389Z,13.20
2019-05-20T04:36:03.847Z,13.30
2019-05-20T04:38:32.327Z,13.30
2019-05-20T04:41:00.763Z,13.40
2019-05-20T04:43:29.172Z,13.40
2019-05-20T04:45:57.599Z,13.50
2019-05-20T04:48:26.020Z,13.50
2019-05-20T04:50:54.440Z,13.50
2019-05-20T04:53:22.851Z,13.60
2019-05-20T04:55:51.272Z,13.60
2019-05-20T04:58:19.683Z,13.60
2019-05-20T05:00:51.252Z,13.60
2019-05-20T05:03:19.731Z,13.60
2019-05-20T05:05:49.998Z,13.60
2019-05-20T05:08:20.420Z,13.60
2019-05-20T05:10:49.380Z,13.60
2019-05-20T05:13:17.849Z,13.70
2019-05-20T05:15:46.527Z,13.70
2019-05-20T05:18:15.015Z,13.80
2019-05-20T05:20:43.423Z,13.80
2019-05-20T05:23:11.973Z,13.80
2019-05-20T05:25:40.400Z,13.90
2019-05-20T05:28:08.814Z,13.90
2019-05-20T05:30:37.740Z,14.00
2019-05-20T05:33:06.211Z,14.10
2019-05-20T05:35:34.687Z,14.10
2019-05-20T05:38:03.381Z,14.10
2019-05-20T05:40:32.410Z,14.10
2019-05-20T05:43:00.822Z,14.10
2019-05-20T05:45:31.417Z,14.10
2019-05-20T05:48:00.233Z,14.10
2019-05-20T05:50:29.178Z,14.20
2019-05-20T05:52:57.650Z,14.20
2019-05-20T05:55:26.600Z,14.30
2019-05-20T05:57:55.017Z,14.30
2019-05-20T06:00:23.617Z,14.30
2019-05-20T06:02:52.022Z,14.40
2019-05-20T06:05:20.442Z,14.50
2019-05-20T06:07:48.863Z,14.70
2019-05-20T06:10:17.607Z,14.60
2019-05-20T06:12:46.021Z,14.60
2019-05-20T06:15:14.978Z,14.70
2019-05-20T06:17:43.409Z,14.60
2019-05-20T06:20:12.648Z,14.70
2019-05-20T06:22:41.158Z,14.80
2019-05-20T06:25:10.062Z,14.90
2019-05-20T06:27:38.518Z,15.00
2019-05-20T06:30:11.921Z,14.90
2019-05-20T06:32:40.622Z,15.00
2019-05-20T06:35:11.019Z,14.90
2019-05-20T06:37:44.063Z,14.90
2019-05-20T06:40:12.852Z,14.80
2019-05-20T06:42:41.311Z,14.90
2019-05-20T06:45:10.159Z,14.80
2019-05-20T06:47:38.570Z,14.70
2019-05-20T06:50:08.428Z,14.70
2019-05-20T06:52:36.844Z,14.50
2019-05-20T06:55:08.192Z,14.30
2019-05-20T06:57:36.724Z,14.10
2019-05-20T07:00:09.630Z,14.20
2019-05-20T07:02:38.054Z,14.20
2019-05-20T07:05:08.295Z,14.20
2019-05-20T07:07:36.724Z,14.10
2019-05-20T07:10:08.861Z,14.10
2019-05-20T07:12:41.292Z,14.10
2019-05-20T07:15:07.860Z,14.10
2019-05-20T07:17:36.360Z,14.10
2019-05-20T07:20:06.172Z,14.10
2019-05-20T07:22:34.665Z,14.20
2019-05-20T07:25:03.453Z,14.30
2019-05-20T07:27:31.922Z,14.40
2019-05-20T07:30:00.344Z,14.40
2019-05-20T07:32:28.831Z,14.40
2019-05-20T07:34:57.372Z,14.60
2019-05-20T07:37:25.812Z,14.70
2019-05-20T07:39:54.265Z,15.00
2019-05-20T07:42:22.698Z,15.30
2019-05-20T07:44:51.117Z,15.30
2019-05-20T07:47:20.235Z,15.60
2019-05-20T07:49:49.593Z,16.20
2019-05-20T07:52:18.548Z,16.70
2019-05-20T07:54:47.899Z,17.00
2019-05-20T07:57:18.523Z,17.30
2019-05-20T07:59:49.973Z,17.20
2019-05-20T08:02:18.632Z,17.40
2019-05-20T08:04:47.132Z,17.60
2019-05-20T08:07:27.649Z,17.70
2019-05-20T08:09:46.649Z,17.80
2019-05-20T08:12:15.295Z,17.90
2019-05-20T08:14:43.787Z,17.50
2019-05-20T08:17:12.349Z,17.50
2019-05-20T08:19:40.823Z,17.30
2019-05-20T08:22:09.541Z,17.00
2019-05-20T08:24:37.986Z,17.10
2019-05-20T08:27:06.558Z,17.20
2019-05-20T08:29:35.031Z,17.20
2019-05-20T08:32:03.819Z,17.50
2019-05-20T08:34:32.825Z,17.60
2019-05-20T08:37:02.131Z,17.90
2019-05-20T08:39:42.679Z,18.20
2019-05-20T08:42:11.245Z,18.40
2019-05-20T08:44:39.711Z,18.90
2019-05-20T08:47:08.147Z,19.60
2019-05-20T08:49:36.602Z,20.20
2019-05-20T08:52:05.067Z,20.20
2019-05-20T08:54:33.484Z,20.60
2019-05-20T08:57:01.898Z,20.70
2019-05-20T08:59:30.308Z,20.20
2019-05-20T09:01:58.772Z,20.10
2019-05-20T09:04:27.182Z,20.20
2019-05-20T09:06:55.603Z,20.40
2019-05-20T09:09:24.119Z,20.80
2019-05-20T09:11:52.588Z,21.40
2019-05-20T09:14:21.017Z,22.00
2019-05-20T09:16:49.419Z,21.80
2019-05-20T09:19:18.101Z,21.60
2019-05-20T09:21:46.743Z,21.50
2019-05-20T09:24:18.662Z,21.80
2019-05-20T09:26:49.795Z,21.80
2019-05-20T09:29:30.550Z,21.50
2019-05-20T09:32:00.040Z,21.20
2019-05-20T09:34:29.481Z,20.70
2019-05-20T09:36:57.964Z,20.40
2019-05-20T09:39:26.451Z,20.10
2019-05-20T09:41:54.864Z,20.00
2019-05-20T09:44:23.354Z,20.10
2019-05-20T09:46:51.767Z,19.80
2019-05-20T09:49:20.178Z,19.70
2019-05-20T09:51:48.599Z,19.70
2019-05-20T09:54:17.031Z,19.60
2019-05-20T09:56:45.417Z,19.50
2019-05-20T09:59:16.312Z,19.30
2019-05-20T10:01:43.967Z,18.90
2019-05-20T10:04:12.381Z,18.50
2019-05-20T10:06:40.786Z,18.40
2019-05-20T10:09:09.195Z,18.40
2019-05-20T10:11:37.701Z,18.30
2019-05-20T10:14:06.211Z,18.30
2019-05-20T10:16:34.621Z,18.20
2019-05-20T10:19:03.107Z,18.30
2019-05-20T10:21:31.573Z,18.00
2019-05-20T10:23:59.982Z,18.00
2019-05-20T10:26:28.386Z,17.90
2019-05-20T10:28:56.805Z,17.80
2019-05-20T10:31:25.240Z,17.70
2019-05-20T10:33:53.800Z,17.70
2019-05-20T10:36:22.406Z,17.80
2019-05-20T10:38:58.539Z,18.10
2019-05-20T10:41:21.071Z,18.40
2019-05-20T10:43:49.510Z,18.90
2019-05-20T10:46:17.912Z,19.30
2019-05-20T10:48:46.622Z,19.20
2019-05-20T10:51:15.087Z,19.50
2019-05-20T10:53:43.495Z,19.70
2019-05-20T10:56:12.410Z,19.50
2019-05-20T10:58:41.057Z,19.50
2019-05-20T11:01:09.456Z,20.00
2019-05-20T11:03:37.971Z,20.90
2019-05-20T11:06:06.424Z,21.30
2019-05-20T11:08:34.894Z,21.40
2019-05-20T11:11:03.373Z,21.30
2019-05-20T11:13:31.807Z,21.60
2019-05-20T11:16:00.218Z,21.60
2019-05-20T11:18:28.764Z,21.50
2019-05-20T11:20:57.169Z,21.30
2019-05-20T11:23:25.612Z,21.20
2019-05-20T11:25:54.020Z,21.10
2019-05-20T11:28:22.527Z,21.10
2019-05-20T11:30:50.923Z,21.20
2019-05-20T11:33:19.342Z,20.90
2019-05-20T11:35:47.747Z,21.10
2019-05-20T11:38:16.814Z,21.40
2019-05-20T11:40:46.186Z,21.20
2019-05-20T11:43:14.661Z,21.30
2019-05-20T11:45:43.106Z,20.80
2019-05-20T11:48:11.528Z,20.80
2019-05-20T11:50:40.603Z,20.90
2019-05-20T11:53:09.028Z,20.70
2019-05-20T11:55:37.498Z,20.50
2019-05-20T11:58:15.102Z,20.80
2019-05-20T12:00:36.123Z,20.60
2019-05-20T12:03:04.539Z,20.40
2019-05-20T12:05:32.952Z,20.40
2019-05-20T12:08:01.358Z,20.50
2019-05-20T12:10:29.779Z,20.50
2019-05-20T12:12:58.180Z,20.60
2019-05-20T12:15:26.628Z,20.70
2019-05-20T12:17:55.031Z,20.70
2019-05-20T12:20:23.447Z,20.60
2019-05-20T12:22:51.862Z,20.70
2019-05-20T12:25:20.279Z,20.70
2019-05-20T12:27:48.687Z,21.00
2019-05-20T12:30:18.055Z,21.40
2019-05-20T12:32:46.625Z,21.30
2019-05-20T12:35:15.062Z,21.40
2019-05-20T12:37:45.621Z,21.40
2019-05-20T12:40:14.125Z,21.70
2019-05-20T12:42:42.534Z,21.60
2019-05-20T12:45:11.303Z,21.50
2019-05-20T12:47:39.711Z,21.40
2019-05-20T12:50:08.814Z,21.80
2019-05-20T12:52:37.305Z,21.80
2019-05-20T12:55:09.649Z,21.90
2019-05-20T12:57:36.830Z,22.00
2019-05-20T13:00:10.684Z,22.00
2019-05-20T13:02:39.654Z,21.50
2019-05-20T13:05:08.627Z,21.20
2019-05-20T13:07:37.123Z,21.00
2019-05-20T13:10:26.520Z,20.60
2019-05-20T13:12:38.054Z,20.40
2019-05-20T13:15:07.716Z,20.20
2019-05-20T13:17:36.176Z,20.20
2019-05-20T13:20:05.678Z,20.20
2019-05-20T13:22:34.120Z,20.10
2019-05-20T13:25:02.615Z,20.20
2019-05-20T13:27:31.105Z,20.20
2019-05-20T13:29:59.524Z,20.20
2019-05-20T13:32:28.074Z,20.20
2019-05-20T13:34:56.698Z,19.80
2019-05-20T13:37:25.135Z,19.40
2019-05-20T13:39:53.776Z,19.20
2019-05-20T13:42:22.188Z,19.20
2019-05-20T13:44:50.617Z,19.10
2019-05-20T13:47:19.026Z,19.00
2019-05-20T13:49:47.500Z,18.80
2019-05-20T13:52:15.950Z,18.70
2019-05-20T13:54:44.401Z,18.50
2019-05-20T13:57:13.515Z,18.40
2019-05-20T13:59:42.045Z,18.30
2019-05-20T14:02:10.459Z,18.30
2019-05-20T14:04:38.887Z,18.50
2019-05-20T14:07:07.328Z,18.30
2019-05-20T14:09:35.742Z,18.40
2019-05-20T14:12:04.231Z,18.40
2019-05-20T14:14:32.655Z,18.50
2019-05-20T14:17:01.083Z,18.40
2019-05-20T14:19:29.515Z,18.20
2019-05-20T14:21:57.925Z,18.10
2019-05-20T14:24:26.359Z,18.10
2019-05-20T14:26:54.780Z,17.90
2019-05-20T14:29:23.198Z,17.80
2019-05-20T14:31:51.635Z,17.70
2019-05-20T14:34:20.132Z,17.70
2019-05-20T14:36:52.632Z,17.80
2019-05-20T14:39:19.025Z,17.70
2019-05-20T14:41:47.450Z,17.70
2019-05-20T14:44:15.859Z,17.70
2019-05-20T14:46:44.278Z,17.60
2019-05-20T14:49:12.695Z,17.50
2019-05-20T14:51:41.152Z,17.40
2019-05-20T14:54:09.564Z,17.10
2019-05-20T14:56:37.982Z,17.20
2019-05-20T14:59:06.399Z,17.00
2019-05-20T15:01:34.848Z,16.80
2019-05-20T15:04:03.256Z,16.70
2019-05-20T15:06:31.671Z,16.60
2019-05-20T15:09:00.101Z,16.50
2019-05-20T15:11:37.666Z,16.40
2019-05-20T15:14:00.385Z,16.30
2019-05-20T15:16:28.867Z,16.00
2019-05-20T15:18:57.271Z,15.90
2019-05-20T15:21:28.919Z,15.60
2019-05-20T15:23:55.838Z,15.40
2019-05-20T15:26:24.277Z,15.10
2019-05-20T15:28:52.687Z,14.90
2019-05-20T15:31:21.097Z,14.70
2019-05-20T15:33:49.501Z,14.50
2019-05-20T15:36:18.048Z,14.40
2019-05-20T15:38:46.575Z,14.40
2019-05-20T15:41:14.992Z,14.30
2019-05-20T15:43:43.410Z,14.30
2019-05-20T15:46:11.819Z,14.20
2019-05-20T15:48:40.240Z,14.10
2019-05-20T15:51:08.648Z,14.10
2019-05-20T15:53:37.094Z,14.00
2019-05-20T15:56:05.521Z,14.00
2019-05-20T15:58:33.935Z,14.00
2019-05-20T16:01:02.345Z,14.00
2019-05-20T16:03:30.763Z,14.00
2019-05-20T16:06:00.086Z,14.10
2019-05-20T16:08:28.822Z,14.10
2019-05-20T16:10:57.267Z,14.00
2019-05-20T16:13:25.685Z,14.00
2019-05-20T16:15:54.086Z,14.00
2019-05-20T16:18:22.505Z,14.00
2019-05-20T16:20:51.131Z,13.90
2019-05-20T16:23:19.578Z,13.90
2019-05-20T16:25:48.250Z,13.90
2019-05-20T16:28:16.691Z,13.90
2019-05-20T16:30:45.111Z,13.90
2019-05-20T16:33:13.537Z,13.80
2019-05-20T16:35:41.959Z,13.80
2019-05-20T16:38:10.378Z,13.80
2019-05-20T16:40:38.794Z,13.80
2019-05-20T16:43:07.212Z,13.70
2019-05-20T16:45:35.625Z,13.70
2019-05-20T16:48:04.138Z,13.70
2019-05-20T16:50:32.542Z,13.70
2019-05-20T16:53:01.018Z,13.70
2019-05-20T16:55:29.436Z,13.60
2019-05-20T16:57:58.029Z,13.60
2019-05-20T17:00:31.898Z,13.50
2019-05-20T17:02:56.641Z,13.50
2019-05-20T17:05:25.045Z,13.50
2019-05-20T17:07:53.483Z,13.50
2019-05-20T17:10:21.901Z,13.40
2019-05-20T17:12:50.419Z,13.50
2019-05-20T17:15:18.885Z,13.50
2019-05-20T17:17:47.325Z,13.50
2019-05-20T17:20:16.320Z,13.40
2019-05-20T17:22:44.735Z,13.40
2019-05-20T17:25:13.283Z,13.40
2019-05-20T17:27:41.703Z,13.40
2019-05-20T17:30:11.470Z,13.30
2019-05-20T17:32:40.001Z,13.30
2019-05-20T17:35:08.653Z,13.30
2019-05-20T17:37:37.214Z,13.30
2019-05-20T17:40:08.053Z,13.20
2019-05-20T17:42:36.470Z,13.20
2019-05-20T17:45:07.026Z,13.20
2019-05-20T17:47:35.511Z,13.20
2019-05-20T17:50:05.938Z,13.20
2019-05-20T17:52:34.398Z,13.20
2019-05-20T17:55:02.863Z,13.10
2019-05-20T17:57:31.382Z,13.20
2019-05-20T17:59:59.846Z,13.20
2019-05-20T18:02:28.376Z,13.20
2019-05-20T18:04:56.844Z,13.10
2019-05-20T18:07:25.250Z,13.10
2019-05-20T18:09:55.337Z,13.10
2019-05-20T18:12:23.737Z,13.20
2019-05-20T18:14:53.796Z,13.20
2019-05-20T18:17:22.277Z,13.30
2019-05-20T18:19:50.706Z,13.20
2019-05-20T18:22:19.129Z,13.30
2019-05-20T18:24:47.716Z,13.30
2019-05-20T18:27:16.333Z,13.30
2019-05-20T18:29:44.927Z,13.30
2019-05-20T18:32:13.664Z,13.30
2019-05-20T18:34:42.308Z,13.30
2019-05-20T18:37:11.234Z,13.40
2019-05-20T18:39:39.726Z,13.30
2019-05-20T18:42:08.135Z,13.40
2019-05-20T18:44:36.633Z,13.30
2019-05-20T18:47:05.115Z,13.40
2019-05-20T18:49:33.539Z,13.30
2019-05-20T18:52:01.948Z,13.40
2019-05-20T18:54:30.374Z,13.30
2019-05-20T18:56:59.028Z,13.40
2019-05-20T18:59:27.553Z,13.30
2019-05-20T19:02:04.812Z,13.40
2019-05-20T19:04:26.120Z,13.40
2019-05-20T19:06:54.523Z,13.40
2019-05-20T19:09:22.994Z,13.30
2019-05-20T19:11:51.402Z,13.30
2019-05-20T19:14:19.836Z,13.30
2019-05-20T19:16:48.253Z,13.40
2019-05-20T19:19:16.808Z,13.30
2019-05-20T19:21:45.220Z,13.30
2019-05-20T19:24:13.925Z,13.30
2019-05-20T19:26:42.335Z,13.30
2019-05-20T19:29:10.759Z,13.20
2019-05-20T19:31:39.168Z,13.30
2019-05-20T19:34:07.690Z,13.20
2019-05-20T19:36:36.196Z,13.30
2019-05-20T19:39:07.643Z,13.20
2019-05-20T19:41:36.406Z,13.30
2019-05-20T19:44:04.883Z,13.30
2019-05-20T19:46:33.295Z,13.20
2019-05-20T19:49:02.035Z,13.20
2019-05-20T19:51:30.482Z,13.30
2019-05-20T19:53:58.961Z,13.30
2019-05-20T19:56:27.386Z,13.30
2019-05-20T19:58:55.880Z,13.30
2019-05-20T20:01:24.354Z,13.30
2019-05-20T20:03:52.762Z,13.30
2019-05-20T20:06:21.189Z,13.30
2019-05-20T20:08:49.669Z,13.40
2019-05-20T20:11:18.083Z,13.40
2019-05-20T20:13:46.494Z,13.40
2019-05-20T20:16:17.907Z,13.40
2019-05-20T20:18:45.075Z,13.40
2019-05-20T20:21:13.495Z,13.40
2019-05-20T20:23:42.008Z,13.40
2019-05-20T20:26:10.503Z,13.40
2019-05-20T20:28:38.908Z,13.40
2019-05-20T20:31:07.318Z,13.40
2019-05-20T20:33:35.731Z,13.40
2019-05-20T20:36:04.148Z,13.40
2019-05-20T20:38:32.608Z,13.40
2019-05-20T20:41:01.032Z,13.40
2019-05-20T20:43:32.112Z,13.40
2019-05-20T20:45:59.573Z,13.40
2019-05-20T20:48:27.979Z,13.40
2019-05-20T20:50:57.145Z,13.50
2019-05-20T20:53:25.619Z,13.40
2019-05-20T20:55:54.037Z,13.40
2019-05-20T20:58:22.451Z,13.40
2019-05-20T21:00:50.927Z,13.40
2019-05-20T21:03:19.337Z,13.40
2019-05-20T21:05:47.753Z,13.40
2019-05-20T21:08:16.169Z,13.40
2019-05-20T21:10:44.583Z,13.40
2019-05-20T21:13:12.991Z,13.40
2019-05-20T21:15:41.404Z,13.40
2019-05-20T21:18:09.810Z,13.40
2019-05-20T21:20:38.532Z,13.40
2019-05-20T21:23:06.937Z,13.40
2019-05-20T21:25:35.354Z,13.40
2019-05-20T21:28:03.759Z,13.40
2019-05-20T21:30:32.183Z,13.40
2019-05-20T21:33:08.876Z,13.40
2019-05-20T21:35:30.726Z,13.40
2019-05-20T21:37:59.138Z,13.40
2019-05-20T21:40:27.660Z,13.30
2019-05-20T21:42:56.168Z,13.30
2019-05-20T21:45:24.585Z,13.40
2019-05-20T21:47:52.991Z,13.40
2019-05-20T21:50:21.474Z,13.40
2019-05-20T21:52:49.880Z,13.30
2019-05-20T21:55:18.299Z,13.30
2019-05-20T21:57:46.730Z,13.30
2019-05-20T22:00:22.636Z,13.30
2019-05-20T22:02:51.124Z,13.30
2019-05-20T22:05:19.577Z,13.40
2019-05-20T22:07:47.987Z,13.40
2019-05-20T22:10:16.491Z,13.40
2019-05-20T22:12:44.931Z,13.40
2019-05-20T22:15:13.418Z,13.30
2019-05-20T22:17:41.831Z,13.40
2019-05-20T22:20:10.679Z,13.40
2019-05-20T22:22:43.744Z,13.40
2019-05-20T22:25:12.231Z,13.40
2019-05-20T22:27:40.648Z,13.40
2019-05-20T22:30:09.965Z,13.40
2019-05-20T22:32:38.379Z,13.50
2019-05-20T22:35:07.651Z,13.40
2019-05-20T22:37:36.050Z,13.50
2019-05-20T22:40:06.393Z,13.50
2019-05-20T22:42:34.811Z,13.50
2019-05-20T22:45:04.054Z,13.50
2019-05-20T22:47:32.495Z,13.50
2019-05-20T22:50:00.892Z,13.50
2019-05-20T22:52:29.308Z,13.40
2019-05-20T22:54:57.718Z,13.40
2019-05-20T22:57:26.131Z,13.40
2019-05-20T22:59:54.613Z,13.40
2019-05-20T23:02:23.046Z,13.40
2019-05-20T23:04:51.471Z,13.40
2019-05-20T23:07:19.878Z,13.40
2019-05-20T23:09:48.290Z,13.40
2019-05-20T23:12:16.711Z,13.40
2019-05-20T23:14:45.114Z,13.40
2019-05-20T23:17:13.533Z,13.40
2019-05-20T23:19:42.247Z,13.30
2019-05-20T23:22:10.663Z,13.40
2019-05-20T23:24:39.410Z,13.30
2019-05-20T23:27:07.926Z,13.30
2019-05-20T23:29:36.339Z,13.40
2019-05-20T23:32:04.764Z,13.40
2019-05-20T23:34:33.256Z,13.30
2019-05-20T23:37:01.674Z,13.30
2019-05-20T23:39:30.119Z,13.30
2019-05-20T23:41:58.527Z,13.30
2019-05-20T23:44:26.941Z,13.30
2019-05-20T23:46:55.374Z,13.30
2019-05-20T23:49:23.781Z,13.30
2019-05-20T23:51:52.207Z,13.40
2019-05-20T23:54:20.632Z,13.40
2019-05-20T23:56:49.060Z,13.40
2019-05-20T23:59:17.473Z,13.40
